sensor_id;sensor_type;location;lat;lon;timestamp;temperature;humidity
13346;DHT22;6742;48.036;15.780;2023-11-18T00:00:29;3.20;99.90
13346;DHT22;6742;48.036;15.780;2023-11-18T00:02:56;3.20;99.90
13346;DHT22;6742;48.036;15.780;2023-11-18T00:05:24;3.20;99.90
13346;DHT22;6742;48.036;15.780;2023-11-18T00:07:51;3.20;99.90
13346;DHT22;6742;48.036;15.780;2023-11-18T00:10:18;3.20;99.90
13346;DHT22;6742;48.036;15.780;2023-11-18T00:12:44;3.20;99.90
13346;DHT22;6742;48.036;15.780;2023-11-18T00:15:13;3.10;99.90
13346;DHT22;6742;48.036;15.780;2023-11-18T00:17:40;3.10;99.90
13346;DHT22;6742;48.036;15.780;2023-11-18T00:20:08;3.10;99.90
13346;DHT22;6742;48.036;15.780;2023-11-18T00:22:37;3.10;99.90
13346;DHT22;6742;48.036;15.780;2023-11-18T00:25:05;3.00;99.90
13346;DHT22;6742;48.036;15.780;2023-11-18T00:27:33;3.00;99.90
13346;DHT22;6742;48.036;15.780;2023-11-18T00:30:01;3.00;99.90
13346;DHT22;6742;48.036;15.780;2023-11-18T00:32:32;3.00;99.90
13346;DHT22;6742;48.036;15.780;2023-11-18T00:34:59;2.90;99.90
13346;DHT22;6742;48.036;15.780;2023-11-18T00:37:26;3.00;99.90
13346;DHT22;6742;48.036;15.780;2023-11-18T00:39:53;2.90;99.90
13346;DHT22;6742;48.036;15.780;2023-11-18T00:42:20;2.90;99.90
13346;DHT22;6742;48.036;15.780;2023-11-18T00:44:47;2.90;99.90
13346;DHT22;6742;48.036;15.780;2023-11-18T00:47:14;2.90;99.90
13346;DHT22;6742;48.036;15.780;2023-11-18T00:49:42;3.00;99.90
13346;DHT22;6742;48.036;15.780;2023-11-18T00:52:09;3.00;99.90
13346;DHT22;6742;48.036;15.780;2023-11-18T00:54:37;3.10;99.90
13346;DHT22;6742;48.036;15.780;2023-11-18T00:57:04;3.10;99.90
13346;DHT22;6742;48.036;15.780;2023-11-18T00:59:31;3.00;99.90
13346;DHT22;6742;48.036;15.780;2023-11-18T01:01:58;3.00;99.90
13346;DHT22;6742;48.036;15.780;2023-11-18T01:04:24;2.90;99.90
13346;DHT22;6742;48.036;15.780;2023-11-18T01:06:53;2.90;99.90
13346;DHT22;6742;48.036;15.780;2023-11-18T01:09:20;2.90;99.90
13346;DHT22;6742;48.036;15.780;2023-11-18T01:11:47;2.90;99.90
13346;DHT22;6742;48.036;15.780;2023-11-18T01:14:14;2.90;99.90
13346;DHT22;6742;48.036;15.780;2023-11-18T01:16:42;2.80;99.90
13346;DHT22;6742;48.036;15.780;2023-11-18T01:19:09;2.90;99.90
13346;DHT22;6742;48.036;15.780;2023-11-18T01:21:36;2.90;99.90
13346;DHT22;6742;48.036;15.780;2023-11-18T01:24:05;2.90;99.90
13346;DHT22;6742;48.036;15.780;2023-11-18T01:26:33;2.80;99.90
13346;DHT22;6742;48.036;15.780;2023-11-18T01:29:02;2.80;99.90
13346;DHT22;6742;48.036;15.780;2023-11-18T01:31:29;2.70;99.90
13346;DHT22;6742;48.036;15.780;2023-11-18T01:33:56;2.70;99.90
13346;DHT22;6742;48.036;15.780;2023-11-18T01:36:23;2.80;99.90
13346;DHT22;6742;48.036;15.780;2023-11-18T01:38:49;2.90;99.90
13346;DHT22;6742;48.036;15.780;2023-11-18T01:41:18;2.90;99.90
13346;DHT22;6742;48.036;15.780;2023-11-18T01:43:45;2.90;99.90
13346;DHT22;6742;48.036;15.780;2023-11-18T01:46:13;2.70;99.90
13346;DHT22;6742;48.036;15.780;2023-11-18T01:48:40;2.70;99.90
13346;DHT22;6742;48.036;15.780;2023-11-18T01:51:09;2.70;99.90
13346;DHT22;6742;48.036;15.780;2023-11-18T01:53:37;2.70;99.90
13346;DHT22;6742;48.036;15.780;2023-11-18T01:56:06;2.60;99.90
13346;DHT22;6742;48.036;15.780;2023-11-18T01:58:36;2.70;99.90
13346;DHT22;6742;48.036;15.780;2023-11-18T02:01:04;2.70;99.90
13346;DHT22;6742;48.036;15.780;2023-11-18T02:03:33;2.60;99.90
13346;DHT22;6742;48.036;15.780;2023-11-18T02:06:02;2.70;99.90
13346;DHT22;6742;48.036;15.780;2023-11-18T02:08:30;2.70;99.90
13346;DHT22;6742;48.036;15.780;2023-11-18T02:11:02;2.70;99.90
13346;DHT22;6742;48.036;15.780;2023-11-18T02:13:40;2.70;99.90
13346;DHT22;6742;48.036;15.780;2023-11-18T02:16:09;2.80;99.90
13346;DHT22;6742;48.036;15.780;2023-11-18T02:18:38;2.80;99.90
13346;DHT22;6742;48.036;15.780;2023-11-18T02:21:07;2.70;99.90
13346;DHT22;6742;48.036;15.780;2023-11-18T02:23:36;2.60;99.90
13346;DHT22;6742;48.036;15.780;2023-11-18T02:26:04;2.60;99.90
13346;DHT22;6742;48.036;15.780;2023-11-18T02:28:31;2.60;99.90
13346;DHT22;6742;48.036;15.780;2023-11-18T02:31:03;2.60;99.90
13346;DHT22;6742;48.036;15.780;2023-11-18T02:33:35;2.60;99.90
13346;DHT22;6742;48.036;15.780;2023-11-18T02:36:09;2.60;99.90
13346;DHT22;6742;48.036;15.780;2023-11-18T02:38:44;2.70;99.90
13346;DHT22;6742;48.036;15.780;2023-11-18T02:41:17;2.70;99.90
13346;DHT22;6742;48.036;15.780;2023-11-18T02:43:45;2.60;99.90
13346;DHT22;6742;48.036;15.780;2023-11-18T02:46:14;2.60;99.90
13346;DHT22;6742;48.036;15.780;2023-11-18T02:48:41;2.60;99.90
13346;DHT22;6742;48.036;15.780;2023-11-18T02:51:08;2.60;99.90
13346;DHT22;6742;48.036;15.780;2023-11-18T02:53:37;2.60;99.90
13346;DHT22;6742;48.036;15.780;2023-11-18T02:56:07;2.60;99.90
13346;DHT22;6742;48.036;15.780;2023-11-18T02:58:36;2.60;99.90
13346;DHT22;6742;48.036;15.780;2023-11-18T03:01:03;2.60;99.90
13346;DHT22;6742;48.036;15.780;2023-11-18T03:03:30;2.60;99.90
13346;DHT22;6742;48.036;15.780;2023-11-18T03:05:57;2.70;99.90
13346;DHT22;6742;48.036;15.780;2023-11-18T03:08:25;2.70;99.90
13346;DHT22;6742;48.036;15.780;2023-11-18T03:10:54;2.70;99.90
13346;DHT22;6742;48.036;15.780;2023-11-18T03:13:21;2.50;99.90
13346;DHT22;6742;48.036;15.780;2023-11-18T03:15:50;2.50;99.90
13346;DHT22;6742;48.036;15.780;2023-11-18T03:18:17;2.50;99.90
13346;DHT22;6742;48.036;15.780;2023-11-18T03:20:44;2.50;99.90
13346;DHT22;6742;48.036;15.780;2023-11-18T03:23:11;2.50;99.90
13346;DHT22;6742;48.036;15.780;2023-11-18T03:25:38;2.50;99.90
13346;DHT22;6742;48.036;15.780;2023-11-18T03:28:05;2.50;99.90
13346;DHT22;6742;48.036;15.780;2023-11-18T03:30:33;2.50;99.90
13346;DHT22;6742;48.036;15.780;2023-11-18T03:33:04;2.40;99.90
13346;DHT22;6742;48.036;15.780;2023-11-18T03:35:30;2.40;99.90
13346;DHT22;6742;48.036;15.780;2023-11-18T03:37:58;2.30;99.90
13346;DHT22;6742;48.036;15.780;2023-11-18T03:40:25;2.40;99.90
13346;DHT22;6742;48.036;15.780;2023-11-18T03:42:54;2.40;99.90
13346;DHT22;6742;48.036;15.780;2023-11-18T03:45:22;2.40;99.90
13346;DHT22;6742;48.036;15.780;2023-11-18T03:47:49;2.50;99.90
13346;DHT22;6742;48.036;15.780;2023-11-18T03:50:18;2.50;99.90
13346;DHT22;6742;48.036;15.780;2023-11-18T03:52:45;2.60;99.90
13346;DHT22;6742;48.036;15.780;2023-11-18T03:55:12;2.50;99.90
13346;DHT22;6742;48.036;15.780;2023-11-18T03:57:39;2.50;99.90
13346;DHT22;6742;48.036;15.780;2023-11-18T04:00:07;2.50;99.90
13346;DHT22;6742;48.036;15.780;2023-11-18T04:02:37;2.50;99.90
13346;DHT22;6742;48.036;15.780;2023-11-18T04:05:06;2.50;99.90
13346;DHT22;6742;48.036;15.780;2023-11-18T04:07:35;2.50;99.90
13346;DHT22;6742;48.036;15.780;2023-11-18T04:10:02;2.50;99.90
13346;DHT22;6742;48.036;15.780;2023-11-18T04:12:31;2.50;99.90
13346;DHT22;6742;48.036;15.780;2023-11-18T04:14:58;2.60;99.90
13346;DHT22;6742;48.036;15.780;2023-11-18T04:17:25;2.60;99.90
13346;DHT22;6742;48.036;15.780;2023-11-18T04:19:53;2.60;99.90
13346;DHT22;6742;48.036;15.780;2023-11-18T04:22:21;2.60;99.90
13346;DHT22;6742;48.036;15.780;2023-11-18T04:24:50;2.60;99.90
13346;DHT22;6742;48.036;15.780;2023-11-18T04:27:16;2.70;99.90
13346;DHT22;6742;48.036;15.780;2023-11-18T04:29:44;2.70;99.90
13346;DHT22;6742;48.036;15.780;2023-11-18T04:32:11;2.80;99.90
13346;DHT22;6742;48.036;15.780;2023-11-18T04:34:39;2.70;99.90
13346;DHT22;6742;48.036;15.780;2023-11-18T04:37:08;2.70;99.90
13346;DHT22;6742;48.036;15.780;2023-11-18T04:39:35;2.80;99.90
13346;DHT22;6742;48.036;15.780;2023-11-18T04:42:05;2.80;99.90
13346;DHT22;6742;48.036;15.780;2023-11-18T04:44:32;2.90;99.90
13346;DHT22;6742;48.036;15.780;2023-11-18T04:46:59;2.80;99.90
13346;DHT22;6742;48.036;15.780;2023-11-18T04:49:26;2.80;99.90
13346;DHT22;6742;48.036;15.780;2023-11-18T04:51:53;2.80;99.90
13346;DHT22;6742;48.036;15.780;2023-11-18T04:54:20;2.80;99.90
13346;DHT22;6742;48.036;15.780;2023-11-18T04:56:47;2.80;99.90
13346;DHT22;6742;48.036;15.780;2023-11-18T04:59:16;2.80;99.90
13346;DHT22;6742;48.036;15.780;2023-11-18T05:01:43;2.80;99.90
13346;DHT22;6742;48.036;15.780;2023-11-18T05:04:10;2.80;99.90
13346;DHT22;6742;48.036;15.780;2023-11-18T05:06:37;2.80;99.90
13346;DHT22;6742;48.036;15.780;2023-11-18T05:09:04;2.80;99.90
13346;DHT22;6742;48.036;15.780;2023-11-18T05:11:33;2.70;99.90
13346;DHT22;6742;48.036;15.780;2023-11-18T05:14:00;2.70;99.90
13346;DHT22;6742;48.036;15.780;2023-11-18T05:16:29;2.70;99.90
13346;DHT22;6742;48.036;15.780;2023-11-18T05:18:56;2.80;99.90
13346;DHT22;6742;48.036;15.780;2023-11-18T05:21:23;2.80;99.90
13346;DHT22;6742;48.036;15.780;2023-11-18T05:23:50;2.80;99.90
13346;DHT22;6742;48.036;15.780;2023-11-18T05:26:17;2.70;99.90
13346;DHT22;6742;48.036;15.780;2023-11-18T05:28:44;2.80;99.90
13346;DHT22;6742;48.036;15.780;2023-11-18T05:31:11;2.80;99.90
13346;DHT22;6742;48.036;15.780;2023-11-18T05:33:39;2.80;99.90
13346;DHT22;6742;48.036;15.780;2023-11-18T05:36:07;2.90;99.90
13346;DHT22;6742;48.036;15.780;2023-11-18T05:38:36;2.80;99.90
13346;DHT22;6742;48.036;15.780;2023-11-18T05:41:04;2.70;99.90
13346;DHT22;6742;48.036;15.780;2023-11-18T05:43:33;2.70;99.90
13346;DHT22;6742;48.036;15.780;2023-11-18T05:46:05;2.70;99.90
13346;DHT22;6742;48.036;15.780;2023-11-18T05:48:47;2.80;99.90
13346;DHT22;6742;48.036;15.780;2023-11-18T05:51:14;2.80;99.90
13346;DHT22;6742;48.036;15.780;2023-11-18T05:53:41;2.80;99.90
13346;DHT22;6742;48.036;15.780;2023-11-18T05:56:10;2.80;99.90
13346;DHT22;6742;48.036;15.780;2023-11-18T05:58:37;2.80;99.90
13346;DHT22;6742;48.036;15.780;2023-11-18T06:01:05;2.80;99.90
13346;DHT22;6742;48.036;15.780;2023-11-18T06:03:33;2.80;99.90
13346;DHT22;6742;48.036;15.780;2023-11-18T06:06:05;2.70;99.90
13346;DHT22;6742;48.036;15.780;2023-11-18T06:08:32;2.80;99.90
13346;DHT22;6742;48.036;15.780;2023-11-18T06:11:00;2.80;99.90
13346;DHT22;6742;48.036;15.780;2023-11-18T06:13:38;2.70;99.90
13346;DHT22;6742;48.036;15.780;2023-11-18T06:16:09;2.80;99.90
13346;DHT22;6742;48.036;15.780;2023-11-18T06:18:40;2.70;99.90
13346;DHT22;6742;48.036;15.780;2023-11-18T06:21:13;2.70;99.90
13346;DHT22;6742;48.036;15.780;2023-11-18T06:23:40;2.70;99.90
13346;DHT22;6742;48.036;15.780;2023-11-18T06:26:07;2.70;99.90
13346;DHT22;6742;48.036;15.780;2023-11-18T06:28:37;2.60;99.90
13346;DHT22;6742;48.036;15.780;2023-11-18T06:31:04;2.60;99.90
13346;DHT22;6742;48.036;15.780;2023-11-18T06:33:36;2.60;99.90
13346;DHT22;6742;48.036;15.780;2023-11-18T06:36:04;2.60;99.90
13346;DHT22;6742;48.036;15.780;2023-11-18T06:38:33;2.60;99.90
13346;DHT22;6742;48.036;15.780;2023-11-18T06:41:00;2.70;99.90
13346;DHT22;6742;48.036;15.780;2023-11-18T06:43:29;2.70;99.90
13346;DHT22;6742;48.036;15.780;2023-11-18T06:46:07;2.80;99.90
13346;DHT22;6742;48.036;15.780;2023-11-18T06:48:36;2.80;99.90
13346;DHT22;6742;48.036;15.780;2023-11-18T06:51:03;2.80;99.90
13346;DHT22;6742;48.036;15.780;2023-11-18T06:53:34;2.80;99.90
13346;DHT22;6742;48.036;15.780;2023-11-18T06:56:01;2.90;99.90
13346;DHT22;6742;48.036;15.780;2023-11-18T06:58:28;3.00;99.90
13346;DHT22;6742;48.036;15.780;2023-11-18T07:00:55;3.00;99.90
13346;DHT22;6742;48.036;15.780;2023-11-18T07:03:22;3.10;99.90
13346;DHT22;6742;48.036;15.780;2023-11-18T07:05:49;3.10;99.90
13346;DHT22;6742;48.036;15.780;2023-11-18T07:08:16;3.20;99.90
13346;DHT22;6742;48.036;15.780;2023-11-18T07:10:44;3.20;99.90
13346;DHT22;6742;48.036;15.780;2023-11-18T07:13:12;3.30;99.90
13346;DHT22;6742;48.036;15.780;2023-11-18T07:15:38;3.60;99.90
13346;DHT22;6742;48.036;15.780;2023-11-18T07:18:07;4.00;99.90
13346;DHT22;6742;48.036;15.780;2023-11-18T07:20:34;4.10;99.90
13346;DHT22;6742;48.036;15.780;2023-11-18T07:23:01;4.00;99.90
13346;DHT22;6742;48.036;15.780;2023-11-18T07:25:28;3.90;99.90
13346;DHT22;6742;48.036;15.780;2023-11-18T07:27:56;3.70;99.90
13346;DHT22;6742;48.036;15.780;2023-11-18T07:30:23;3.60;99.90
13346;DHT22;6742;48.036;15.780;2023-11-18T07:32:51;3.50;99.90
13346;DHT22;6742;48.036;15.780;2023-11-18T07:35:18;3.60;99.90
13346;DHT22;6742;48.036;15.780;2023-11-18T07:37:44;3.60;99.90
13346;DHT22;6742;48.036;15.780;2023-11-18T07:40:12;3.50;99.90
13346;DHT22;6742;48.036;15.780;2023-11-18T07:42:40;3.50;99.90
13346;DHT22;6742;48.036;15.780;2023-11-18T07:45:09;3.60;99.90
13346;DHT22;6742;48.036;15.780;2023-11-18T07:47:43;3.60;99.90
13346;DHT22;6742;48.036;15.780;2023-11-18T07:50:10;3.60;99.90
13346;DHT22;6742;48.036;15.780;2023-11-18T07:52:39;3.60;99.90
13346;DHT22;6742;48.036;15.780;2023-11-18T07:55:06;3.70;99.90
13346;DHT22;6742;48.036;15.780;2023-11-18T07:57:38;3.60;99.90
13346;DHT22;6742;48.036;15.780;2023-11-18T08:00:06;3.70;99.90
13346;DHT22;6742;48.036;15.780;2023-11-18T08:02:36;3.60;99.90
13346;DHT22;6742;48.036;15.780;2023-11-18T08:05:03;3.60;99.90
13346;DHT22;6742;48.036;15.780;2023-11-18T08:07:33;3.60;99.90
13346;DHT22;6742;48.036;15.780;2023-11-18T08:10:00;3.60;99.90
13346;DHT22;6742;48.036;15.780;2023-11-18T08:12:29;3.70;99.90
13346;DHT22;6742;48.036;15.780;2023-11-18T08:14:56;3.70;99.90
13346;DHT22;6742;48.036;15.780;2023-11-18T08:17:23;3.70;99.90
13346;DHT22;6742;48.036;15.780;2023-11-18T08:19:52;3.60;99.90
13346;DHT22;6742;48.036;15.780;2023-11-18T08:22:19;3.70;99.90
13346;DHT22;6742;48.036;15.780;2023-11-18T08:24:49;3.60;99.90
13346;DHT22;6742;48.036;15.780;2023-11-18T08:27:16;3.70;99.90
13346;DHT22;6742;48.036;15.780;2023-11-18T08:29:43;3.70;99.90
13346;DHT22;6742;48.036;15.780;2023-11-18T08:32:11;3.70;99.90
13346;DHT22;6742;48.036;15.780;2023-11-18T08:34:38;3.70;99.90
13346;DHT22;6742;48.036;15.780;2023-11-18T08:37:07;3.70;99.90
13346;DHT22;6742;48.036;15.780;2023-11-18T08:39:34;3.60;99.90
13346;DHT22;6742;48.036;15.780;2023-11-18T08:42:02;3.60;99.90
13346;DHT22;6742;48.036;15.780;2023-11-18T08:44:29;3.70;99.90
13346;DHT22;6742;48.036;15.780;2023-11-18T08:46:58;3.70;99.90
13346;DHT22;6742;48.036;15.780;2023-11-18T08:49:24;3.70;99.90
13346;DHT22;6742;48.036;15.780;2023-11-18T08:51:55;3.60;99.90
13346;DHT22;6742;48.036;15.780;2023-11-18T08:54:25;3.70;99.90
13346;DHT22;6742;48.036;15.780;2023-11-18T08:57:03;3.70;99.90
13346;DHT22;6742;48.036;15.780;2023-11-18T08:59:40;3.80;99.90
13346;DHT22;6742;48.036;15.780;2023-11-18T09:02:07;3.70;99.90
13346;DHT22;6742;48.036;15.780;2023-11-18T09:07:07;3.60;99.90
13346;DHT22;6742;48.036;15.780;2023-11-18T09:09:37;3.60;99.90
13346;DHT22;6742;48.036;15.780;2023-11-18T09:12:06;3.60;99.90
13346;DHT22;6742;48.036;15.780;2023-11-18T09:14:34;3.60;99.90
13346;DHT22;6742;48.036;15.780;2023-11-18T09:17:01;3.70;99.90
13346;DHT22;6742;48.036;15.780;2023-11-18T09:19:28;3.70;99.90
13346;DHT22;6742;48.036;15.780;2023-11-18T09:21:55;3.80;99.90
13346;DHT22;6742;48.036;15.780;2023-11-18T09:24:22;3.80;99.90
13346;DHT22;6742;48.036;15.780;2023-11-18T09:26:52;3.90;99.90
13346;DHT22;6742;48.036;15.780;2023-11-18T09:29:20;3.90;99.90
13346;DHT22;6742;48.036;15.780;2023-11-18T09:31:50;3.90;99.90
13346;DHT22;6742;48.036;15.780;2023-11-18T09:34:18;3.90;99.90
13346;DHT22;6742;48.036;15.780;2023-11-18T09:36:53;3.90;99.90
13346;DHT22;6742;48.036;15.780;2023-11-18T09:39:20;3.90;99.90
13346;DHT22;6742;48.036;15.780;2023-11-18T09:42:05;3.90;99.90
13346;DHT22;6742;48.036;15.780;2023-11-18T09:44:36;4.00;99.90
13346;DHT22;6742;48.036;15.780;2023-11-18T09:47:08;3.90;99.90
13346;DHT22;6742;48.036;15.780;2023-11-18T09:49:44;4.00;99.90
13346;DHT22;6742;48.036;15.780;2023-11-18T09:52:16;4.00;99.90
13346;DHT22;6742;48.036;15.780;2023-11-18T09:54:51;4.00;99.90
13346;DHT22;6742;48.036;15.780;2023-11-18T09:57:27;4.00;99.90
13346;DHT22;6742;48.036;15.780;2023-11-18T10:00:01;4.10;99.90
13346;DHT22;6742;48.036;15.780;2023-11-18T10:02:39;4.10;99.90
13346;DHT22;6742;48.036;15.780;2023-11-18T10:05:07;4.10;99.90
13346;DHT22;6742;48.036;15.780;2023-11-18T10:07:38;4.20;99.90
13346;DHT22;6742;48.036;15.780;2023-11-18T10:10:07;4.10;99.90
13346;DHT22;6742;48.036;15.780;2023-11-18T10:12:41;4.10;99.90
13346;DHT22;6742;48.036;15.780;2023-11-18T10:15:12;4.10;99.90
13346;DHT22;6742;48.036;15.780;2023-11-18T10:17:42;4.10;99.90
13346;DHT22;6742;48.036;15.780;2023-11-18T10:20:21;4.10;99.90
13346;DHT22;6742;48.036;15.780;2023-11-18T10:23:06;4.10;99.90
13346;DHT22;6742;48.036;15.780;2023-11-18T10:25:35;4.20;99.90
13346;DHT22;6742;48.036;15.780;2023-11-18T10:28:07;4.20;99.90
13346;DHT22;6742;48.036;15.780;2023-11-18T10:30:43;4.20;99.90
13346;DHT22;6742;48.036;15.780;2023-11-18T10:33:14;4.20;99.90
13346;DHT22;6742;48.036;15.780;2023-11-18T10:35:49;4.30;99.90
13346;DHT22;6742;48.036;15.780;2023-11-18T10:38:17;4.30;99.90
13346;DHT22;6742;48.036;15.780;2023-11-18T10:40:47;4.30;99.90
13346;DHT22;6742;48.036;15.780;2023-11-18T10:43:16;4.40;99.90
13346;DHT22;6742;48.036;15.780;2023-11-18T10:45:43;4.40;99.90
13346;DHT22;6742;48.036;15.780;2023-11-18T10:48:12;4.50;99.90
13346;DHT22;6742;48.036;15.780;2023-11-18T10:50:42;4.50;99.90
13346;DHT22;6742;48.036;15.780;2023-11-18T10:53:12;4.60;99.90
13346;DHT22;6742;48.036;15.780;2023-11-18T10:55:41;4.50;99.90
13346;DHT22;6742;48.036;15.780;2023-11-18T10:58:08;4.60;99.90
13346;DHT22;6742;48.036;15.780;2023-11-18T11:00:47;4.70;99.90
13346;DHT22;6742;48.036;15.780;2023-11-18T11:03:15;4.80;99.90
13346;DHT22;6742;48.036;15.780;2023-11-18T11:05:44;4.80;99.90
13346;DHT22;6742;48.036;15.780;2023-11-18T11:08:13;4.80;99.90
13346;DHT22;6742;48.036;15.780;2023-11-18T11:10:41;4.80;99.90
13346;DHT22;6742;48.036;15.780;2023-11-18T11:13:09;4.90;99.90
13346;DHT22;6742;48.036;15.780;2023-11-18T11:15:41;4.90;99.90
13346;DHT22;6742;48.036;15.780;2023-11-18T11:18:20;5.00;99.90
13346;DHT22;6742;48.036;15.780;2023-11-18T11:20:59;5.00;99.90
13346;DHT22;6742;48.036;15.780;2023-11-18T11:23:35;5.10;99.90
13346;DHT22;6742;48.036;15.780;2023-11-18T11:26:17;5.20;99.90
13346;DHT22;6742;48.036;15.780;2023-11-18T11:28:54;5.30;99.90
13346;DHT22;6742;48.036;15.780;2023-11-18T11:31:30;5.40;99.90
13346;DHT22;6742;48.036;15.780;2023-11-18T11:34:04;5.50;99.90
13346;DHT22;6742;48.036;15.780;2023-11-18T11:36:37;5.50;99.90
13346;DHT22;6742;48.036;15.780;2023-11-18T11:39:08;5.40;99.90
13346;DHT22;6742;48.036;15.780;2023-11-18T11:41:44;5.40;99.90
13346;DHT22;6742;48.036;15.780;2023-11-18T11:44:13;5.30;99.90
13346;DHT22;6742;48.036;15.780;2023-11-18T11:46:40;5.20;99.90
13346;DHT22;6742;48.036;15.780;2023-11-18T11:49:11;5.10;99.90
13346;DHT22;6742;48.036;15.780;2023-11-18T11:51:45;5.00;99.90
13346;DHT22;6742;48.036;15.780;2023-11-18T11:54:19;5.00;99.90
13346;DHT22;6742;48.036;15.780;2023-11-18T11:56:48;4.90;99.90
13346;DHT22;6742;48.036;15.780;2023-11-18T11:59:17;5.00;99.90
13346;DHT22;6742;48.036;15.780;2023-11-18T12:02:02;5.00;99.90
13346;DHT22;6742;48.036;15.780;2023-11-18T12:04:34;5.00;99.90
13346;DHT22;6742;48.036;15.780;2023-11-18T12:07:05;5.00;99.90
13346;DHT22;6742;48.036;15.780;2023-11-18T12:09:36;5.00;99.90
13346;DHT22;6742;48.036;15.780;2023-11-18T12:12:05;5.00;99.90
13346;DHT22;6742;48.036;15.780;2023-11-18T12:14:49;5.00;99.90
13346;DHT22;6742;48.036;15.780;2023-11-18T12:17:18;5.00;99.90
13346;DHT22;6742;48.036;15.780;2023-11-18T12:19:49;5.00;99.90
13346;DHT22;6742;48.036;15.780;2023-11-18T12:22:24;5.00;99.90
13346;DHT22;6742;48.036;15.780;2023-11-18T12:28:15;4.90;99.90
13346;DHT22;6742;48.036;15.780;2023-11-18T12:30:52;5.00;99.90
13346;DHT22;6742;48.036;15.780;2023-11-18T12:33:25;5.00;99.90
13346;DHT22;6742;48.036;15.780;2023-11-18T12:36:30;5.00;99.90
13346;DHT22;6742;48.036;15.780;2023-11-18T12:39:40;5.00;99.90
13346;DHT22;6742;48.036;15.780;2023-11-18T12:45:43;5.10;99.90
13346;DHT22;6742;48.036;15.780;2023-11-18T12:48:14;5.10;99.90
13346;DHT22;6742;48.036;15.780;2023-11-18T12:50:42;5.20;99.90
13346;DHT22;6742;48.036;15.780;2023-11-18T12:53:12;5.20;99.90
13346;DHT22;6742;48.036;15.780;2023-11-18T12:55:40;5.30;99.90
13346;DHT22;6742;48.036;15.780;2023-11-18T12:58:08;5.30;99.90
13346;DHT22;6742;48.036;15.780;2023-11-18T13:00:39;5.30;99.90
13346;DHT22;6742;48.036;15.780;2023-11-18T13:03:08;5.20;99.90
13346;DHT22;6742;48.036;15.780;2023-11-18T13:05:36;5.30;99.90
13346;DHT22;6742;48.036;15.780;2023-11-18T13:08:04;5.40;99.90
13346;DHT22;6742;48.036;15.780;2023-11-18T13:10:32;5.40;99.90
13346;DHT22;6742;48.036;15.780;2023-11-18T13:12:59;5.50;99.90
13346;DHT22;6742;48.036;15.780;2023-11-18T13:15:27;5.50;99.90
13346;DHT22;6742;48.036;15.780;2023-11-18T13:18:01;5.50;99.90
13346;DHT22;6742;48.036;15.780;2023-11-18T13:20:32;5.60;99.90
13346;DHT22;6742;48.036;15.780;2023-11-18T13:23:01;5.70;99.90
13346;DHT22;6742;48.036;15.780;2023-11-18T13:25:35;5.60;99.90
13346;DHT22;6742;48.036;15.780;2023-11-18T13:28:04;5.60;99.90
13346;DHT22;6742;48.036;15.780;2023-11-18T13:30:33;5.60;99.90
13346;DHT22;6742;48.036;15.780;2023-11-18T13:33:00;5.60;99.90
13346;DHT22;6742;48.036;15.780;2023-11-18T13:35:28;5.50;99.90
13346;DHT22;6742;48.036;15.780;2023-11-18T13:37:55;5.50;99.90
13346;DHT22;6742;48.036;15.780;2023-11-18T13:40:24;5.60;99.90
13346;DHT22;6742;48.036;15.780;2023-11-18T13:43:02;5.60;99.90
13346;DHT22;6742;48.036;15.780;2023-11-18T13:45:30;5.60;99.90
13346;DHT22;6742;48.036;15.780;2023-11-18T13:48:00;5.60;99.90
13346;DHT22;6742;48.036;15.780;2023-11-18T13:50:27;5.50;99.90
13346;DHT22;6742;48.036;15.780;2023-11-18T13:52:56;5.50;99.90
13346;DHT22;6742;48.036;15.780;2023-11-18T13:55:24;5.50;99.90
13346;DHT22;6742;48.036;15.780;2023-11-18T13:57:53;5.50;99.90
13346;DHT22;6742;48.036;15.780;2023-11-18T14:00:25;5.50;99.90
13346;DHT22;6742;48.036;15.780;2023-11-18T14:02:54;5.50;99.90
13346;DHT22;6742;48.036;15.780;2023-11-18T14:05:22;5.50;99.90
13346;DHT22;6742;48.036;15.780;2023-11-18T14:07:51;5.60;99.90
13346;DHT22;6742;48.036;15.780;2023-11-18T14:10:18;5.60;99.90
13346;DHT22;6742;48.036;15.780;2023-11-18T14:13:01;5.60;99.90
13346;DHT22;6742;48.036;15.780;2023-11-18T14:15:32;5.60;99.90
13346;DHT22;6742;48.036;15.780;2023-11-18T14:18:01;5.60;99.90
13346;DHT22;6742;48.036;15.780;2023-11-18T14:20:28;5.50;99.90
13346;DHT22;6742;48.036;15.780;2023-11-18T14:22:57;5.40;99.90
13346;DHT22;6742;48.036;15.780;2023-11-18T14:25:24;5.50;99.90
13346;DHT22;6742;48.036;15.780;2023-11-18T14:27:52;5.50;99.90
13346;DHT22;6742;48.036;15.780;2023-11-18T14:30:20;5.30;99.90
13346;DHT22;6742;48.036;15.780;2023-11-18T14:32:51;5.30;99.90
13346;DHT22;6742;48.036;15.780;2023-11-18T14:35:18;5.30;99.90
13346;DHT22;6742;48.036;15.780;2023-11-18T14:37:46;5.20;99.90
13346;DHT22;6742;48.036;15.780;2023-11-18T14:40:13;5.20;99.90
13346;DHT22;6742;48.036;15.780;2023-11-18T14:42:43;5.00;99.90
13346;DHT22;6742;48.036;15.780;2023-11-18T14:45:13;5.00;99.90
13346;DHT22;6742;48.036;15.780;2023-11-18T14:47:40;5.00;99.90
13346;DHT22;6742;48.036;15.780;2023-11-18T14:50:11;5.00;99.90
13346;DHT22;6742;48.036;15.780;2023-11-18T14:52:44;4.90;99.90
13346;DHT22;6742;48.036;15.780;2023-11-18T14:55:12;4.80;99.90
13346;DHT22;6742;48.036;15.780;2023-11-18T14:57:39;4.80;99.90
13346;DHT22;6742;48.036;15.780;2023-11-18T15:00:08;4.80;99.90
13346;DHT22;6742;48.036;15.780;2023-11-18T15:02:45;4.70;99.90
13346;DHT22;6742;48.036;15.780;2023-11-18T15:05:14;4.70;99.90
13346;DHT22;6742;48.036;15.780;2023-11-18T15:07:44;4.70;99.90
13346;DHT22;6742;48.036;15.780;2023-11-18T15:10:14;4.60;99.90
13346;DHT22;6742;48.036;15.780;2023-11-18T15:12:45;4.60;99.90
13346;DHT22;6742;48.036;15.780;2023-11-18T15:15:12;4.60;99.90
13346;DHT22;6742;48.036;15.780;2023-11-18T15:17:44;4.60;99.90
13346;DHT22;6742;48.036;15.780;2023-11-18T15:20:12;4.60;99.90
13346;DHT22;6742;48.036;15.780;2023-11-18T15:22:41;4.60;99.90
13346;DHT22;6742;48.036;15.780;2023-11-18T15:25:10;4.40;99.90
13346;DHT22;6742;48.036;15.780;2023-11-18T15:27:39;4.50;99.90
13346;DHT22;6742;48.036;15.780;2023-11-18T15:30:07;4.50;99.90
13346;DHT22;6742;48.036;15.780;2023-11-18T15:32:36;4.60;99.90
13346;DHT22;6742;48.036;15.780;2023-11-18T15:35:04;4.60;99.90
13346;DHT22;6742;48.036;15.780;2023-11-18T15:37:34;4.60;99.90
13346;DHT22;6742;48.036;15.780;2023-11-18T15:40:05;4.60;99.90
13346;DHT22;6742;48.036;15.780;2023-11-18T15:42:35;4.60;99.90
13346;DHT22;6742;48.036;15.780;2023-11-18T15:45:04;4.60;99.90
13346;DHT22;6742;48.036;15.780;2023-11-18T15:47:34;4.60;99.90
13346;DHT22;6742;48.036;15.780;2023-11-18T15:50:04;4.50;99.90
13346;DHT22;6742;48.036;15.780;2023-11-18T15:52:31;4.50;99.90
13346;DHT22;6742;48.036;15.780;2023-11-18T15:55:00;4.40;99.90
13346;DHT22;6742;48.036;15.780;2023-11-18T15:57:29;4.40;99.90
13346;DHT22;6742;48.036;15.780;2023-11-18T15:59:56;4.30;99.90
13346;DHT22;6742;48.036;15.780;2023-11-18T16:02:23;4.30;99.90
13346;DHT22;6742;48.036;15.780;2023-11-18T16:04:50;4.30;99.90
13346;DHT22;6742;48.036;15.780;2023-11-18T16:07:17;4.30;99.90